sensor_id;sensor_type;location;lat;lon;timestamp;P1;durP1;ratioP1;P2;durP2;ratioP2
3081;SDS011;1551;51.046;7.010;2022-07-30T00:02:16;4.88;;;3.90;;
3081;SDS011;1551;51.046;7.010;2022-07-30T00:05:05;5.25;;;3.58;;
3081;SDS011;1551;51.046;7.010;2022-07-30T00:07:54;4.32;;;3.63;;
3081;SDS011;1551;51.046;7.010;2022-07-30T00:10:43;5.20;;;3.87;;
3081;SDS011;1551;51.046;7.010;2022-07-30T00:13:32;6.10;;;3.80;;
3081;SDS011;1551;51.046;7.010;2022-07-30T00:16:21;4.00;;;3.20;;
3081;SDS011;1551;51.046;7.010;2022-07-30T00:19:10;5.25;;;3.40;;
3081;SDS011;1551;51.046;7.010;2022-07-30T00:22:00;4.50;;;4.00;;
3081;SDS011;1551;51.046;7.010;2022-07-30T00:24:49;4.53;;;3.85;;
3081;SDS011;1551;51.046;7.010;2022-07-30T00:27:38;5.00;;;3.50;;
3081;SDS011;1551;51.046;7.010;2022-07-30T00:30:27;5.60;;;3.90;;
3081;SDS011;1551;51.046;7.010;2022-07-30T00:33:16;4.88;;;3.22;;
3081;SDS011;1551;51.046;7.010;2022-07-30T00:36:05;5.83;;;4.20;;
3081;SDS011;1551;51.046;7.010;2022-07-30T00:38:54;5.78;;;3.50;;
3081;SDS011;1551;51.046;7.010;2022-07-30T00:41:56;4.80;;;3.80;;
3081;SDS011;1551;51.046;7.010;2022-07-30T00:44:49;5.05;;;4.07;;
3081;SDS011;1551;51.046;7.010;2022-07-30T00:47:40;5.60;;;4.00;;
3081;SDS011;1551;51.046;7.010;2022-07-30T00:50:29;4.90;;;3.80;;
3081;SDS011;1551;51.046;7.010;2022-07-30T00:53:18;5.68;;;4.00;;
3081;SDS011;1551;51.046;7.010;2022-07-30T00:56:07;5.20;;;4.20;;
3081;SDS011;1551;51.046;7.010;2022-07-30T00:58:57;5.63;;;4.35;;
3081;SDS011;1551;51.046;7.010;2022-07-30T01:01:46;5.22;;;4.35;;
3081;SDS011;1551;51.046;7.010;2022-07-30T01:04:35;5.90;;;5.10;;
3081;SDS011;1551;51.046;7.010;2022-07-30T01:07:24;5.55;;;4.78;;
3081;SDS011;1551;51.046;7.010;2022-07-30T01:10:14;6.47;;;4.43;;
3081;SDS011;1551;51.046;7.010;2022-07-30T01:13:04;4.55;;;4.00;;
3081;SDS011;1551;51.046;7.010;2022-07-30T01:15:54;5.30;;;4.80;;
3081;SDS011;1551;51.046;7.010;2022-07-30T01:18:46;6.07;;;3.53;;
3081;SDS011;1551;51.046;7.010;2022-07-30T01:21:59;9.70;;;4.00;;
3081;SDS011;1551;51.046;7.010;2022-07-30T01:28:06;5.20;;;3.80;;
3081;SDS011;1551;51.046;7.010;2022-07-30T01:30:59;7.43;;;4.03;;
3081;SDS011;1551;51.046;7.010;2022-07-30T01:33:51;5.47;;;3.65;;
3081;SDS011;1551;51.046;7.010;2022-07-30T01:36:42;3.88;;;3.55;;
3081;SDS011;1551;51.046;7.010;2022-07-30T01:39:33;4.57;;;4.13;;
3081;SDS011;1551;51.046;7.010;2022-07-30T01:42:23;4.50;;;3.67;;
3081;SDS011;1551;51.046;7.010;2022-07-30T01:45:16;5.53;;;3.88;;
3081;SDS011;1551;51.046;7.010;2022-07-30T01:48:07;4.88;;;3.72;;
3081;SDS011;1551;51.046;7.010;2022-07-30T01:50:59;5.70;;;4.30;;
3081;SDS011;1551;51.046;7.010;2022-07-30T01:53:52;5.05;;;4.20;;
3081;SDS011;1551;51.046;7.010;2022-07-30T01:56:44;5.00;;;4.03;;
3081;SDS011;1551;51.046;7.010;2022-07-30T01:59:36;4.50;;;3.78;;
3081;SDS011;1551;51.046;7.010;2022-07-30T02:02:28;6.43;;;4.45;;
3081;SDS011;1551;51.046;7.010;2022-07-30T02:05:17;5.47;;;4.20;;
3081;SDS011;1551;51.046;7.010;2022-07-30T02:08:14;7.60;;;4.18;;
3081;SDS011;1551;51.046;7.010;2022-07-30T02:11:14;6.10;;;4.15;;
3081;SDS011;1551;51.046;7.010;2022-07-30T02:14:25;6.20;;;4.50;;
3081;SDS011;1551;51.046;7.010;2022-07-30T02:17:20;5.10;;;4.40;;
3081;SDS011;1551;51.046;7.010;2022-07-30T02:20:11;4.40;;;4.00;;
3081;SDS011;1551;51.046;7.010;2022-07-30T02:23:04;4.60;;;4.10;;
3081;SDS011;1551;51.046;7.010;2022-07-30T02:25:57;5.90;;;4.28;;
3081;SDS011;1551;51.046;7.010;2022-07-30T02:28:50;3.97;;;3.42;;
3081;SDS011;1551;51.046;7.010;2022-07-30T02:31:44;4.83;;;4.10;;
3081;SDS011;1551;51.046;7.010;2022-07-30T02:34:34;7.32;;;4.22;;
3081;SDS011;1551;51.046;7.010;2022-07-30T02:37:26;5.60;;;4.10;;
3081;SDS011;1551;51.046;7.010;2022-07-30T02:40:18;4.32;;;3.92;;
3081;SDS011;1551;51.046;7.010;2022-07-30T02:43:09;7.82;;;4.60;;
3081;SDS011;1551;51.046;7.010;2022-07-30T02:46:02;9.23;;;4.68;;
3081;SDS011;1551;51.046;7.010;2022-07-30T02:49:11;4.70;;;3.90;;
3081;SDS011;1551;51.046;7.010;2022-07-30T02:52:03;6.70;;;4.50;;
3081;SDS011;1551;51.046;7.010;2022-07-30T02:54:57;4.33;;;3.80;;
3081;SDS011;1551;51.046;7.010;2022-07-30T02:57:48;5.10;;;4.30;;
3081;SDS011;1551;51.046;7.010;2022-07-30T03:00:39;6.60;;;4.40;;
3081;SDS011;1551;51.046;7.010;2022-07-30T03:03:30;4.88;;;4.30;;
3081;SDS011;1551;51.046;7.010;2022-07-30T03:06:19;6.43;;;3.92;;
3081;SDS011;1551;51.046;7.010;2022-07-30T03:09:09;5.75;;;4.30;;
3081;SDS011;1551;51.046;7.010;2022-07-30T03:11:58;6.05;;;3.85;;
3081;SDS011;1551;51.046;7.010;2022-07-30T03:14:50;4.88;;;4.10;;
3081;SDS011;1551;51.046;7.010;2022-07-30T03:17:41;6.60;;;4.60;;
3081;SDS011;1551;51.046;7.010;2022-07-30T03:20:32;5.55;;;4.10;;
3081;SDS011;1551;51.046;7.010;2022-07-30T03:23:22;5.03;;;4.13;;
3081;SDS011;1551;51.046;7.010;2022-07-30T03:26:13;4.78;;;4.28;;
3081;SDS011;1551;51.046;7.010;2022-07-30T03:29:07;7.03;;;4.50;;
3081;SDS011;1551;51.046;7.010;2022-07-30T03:31:59;13.85;;;8.38;;
3081;SDS011;1551;51.046;7.010;2022-07-30T03:34:49;39.80;;;16.10;;
3081;SDS011;1551;51.046;7.010;2022-07-30T03:37:39;29.10;;;15.05;;
3081;SDS011;1551;51.046;7.010;2022-07-30T03:40:29;21.65;;;11.15;;
3081;SDS011;1551;51.046;7.010;2022-07-30T03:43:19;12.35;;;7.63;;
3081;SDS011;1551;51.046;7.010;2022-07-30T03:46:09;13.70;;;6.70;;
3081;SDS011;1551;51.046;7.010;2022-07-30T03:49:02;9.50;;;5.90;;
3081;SDS011;1551;51.046;7.010;2022-07-30T03:51:54;7.85;;;5.97;;
3081;SDS011;1551;51.046;7.010;2022-07-30T03:54:44;6.60;;;4.90;;
3081;SDS011;1551;51.046;7.010;2022-07-30T03:57:54;8.77;;;4.43;;
3081;SDS011;1551;51.046;7.010;2022-07-30T04:00:49;7.10;;;4.50;;
3081;SDS011;1551;51.046;7.010;2022-07-30T04:03:39;5.00;;;3.65;;
3081;SDS011;1551;51.046;7.010;2022-07-30T04:06:29;5.95;;;4.20;;
3081;SDS011;1551;51.046;7.010;2022-07-30T04:09:18;4.75;;;4.30;;
3081;SDS011;1551;51.046;7.010;2022-07-30T04:12:09;5.78;;;4.78;;
3081;SDS011;1551;51.046;7.010;2022-07-30T04:15:02;7.20;;;5.80;;
3081;SDS011;1551;51.046;7.010;2022-07-30T04:17:52;8.25;;;5.45;;
3081;SDS011;1551;51.046;7.010;2022-07-30T04:20:46;5.78;;;4.30;;
3081;SDS011;1551;51.046;7.010;2022-07-30T04:23:39;6.35;;;5.20;;
3081;SDS011;1551;51.046;7.010;2022-07-30T04:26:31;7.25;;;6.20;;
3081;SDS011;1551;51.046;7.010;2022-07-30T04:29:23;8.95;;;7.03;;
3081;SDS011;1551;51.046;7.010;2022-07-30T04:32:12;7.18;;;5.30;;
3081;SDS011;1551;51.046;7.010;2022-07-30T04:35:25;6.30;;;5.65;;
3081;SDS011;1551;51.046;7.010;2022-07-30T04:38:33;7.43;;;6.43;;
3081;SDS011;1551;51.046;7.010;2022-07-30T04:41:22;9.07;;;7.80;;
3081;SDS011;1551;51.046;7.010;2022-07-30T04:44:44;10.57;;;7.75;;
3081;SDS011;1551;51.046;7.010;2022-07-30T04:47:58;6.53;;;5.65;;
3081;SDS011;1551;51.046;7.010;2022-07-30T04:50:56;7.50;;;6.63;;
3081;SDS011;1551;51.046;7.010;2022-07-30T04:53:50;8.03;;;6.57;;
3081;SDS011;1551;51.046;7.010;2022-07-30T04:56:44;8.57;;;6.93;;
3081;SDS011;1551;51.046;7.010;2022-07-30T04:59:36;11.13;;;7.70;;
3081;SDS011;1551;51.046;7.010;2022-07-30T05:02:25;8.80;;;7.20;;
3081;SDS011;1551;51.046;7.010;2022-07-30T05:05:17;9.43;;;8.52;;
3081;SDS011;1551;51.046;7.010;2022-07-30T05:08:08;7.70;;;6.72;;
3081;SDS011;1551;51.046;7.010;2022-07-30T05:10:58;6.75;;;6.05;;
3081;SDS011;1551;51.046;7.010;2022-07-30T05:13:48;7.13;;;6.30;;
3081;SDS011;1551;51.046;7.010;2022-07-30T05:16:41;10.13;;;7.30;;
3081;SDS011;1551;51.046;7.010;2022-07-30T05:19:30;7.10;;;4.95;;
3081;SDS011;1551;51.046;7.010;2022-07-30T05:22:19;7.72;;;6.93;;
3081;SDS011;1551;51.046;7.010;2022-07-30T05:25:08;9.70;;;8.70;;
3081;SDS011;1551;51.046;7.010;2022-07-30T05:27:57;9.02;;;7.18;;
3081;SDS011;1551;51.046;7.010;2022-07-30T05:30:47;5.88;;;4.80;;
3081;SDS011;1551;51.046;7.010;2022-07-30T05:33:40;7.50;;;6.18;;
3081;SDS011;1551;51.046;7.010;2022-07-30T05:36:31;12.18;;;9.00;;
3081;SDS011;1551;51.046;7.010;2022-07-30T05:39:20;11.63;;;10.43;;
3081;SDS011;1551;51.046;7.010;2022-07-30T05:42:37;11.70;;;10.48;;
3081;SDS011;1551;51.046;7.010;2022-07-30T05:45:26;13.05;;;11.25;;
3081;SDS011;1551;51.046;7.010;2022-07-30T05:48:15;13.07;;;11.43;;
3081;SDS011;1551;51.046;7.010;2022-07-30T05:51:04;9.63;;;6.80;;
3081;SDS011;1551;51.046;7.010;2022-07-30T05:53:53;10.33;;;8.30;;
3081;SDS011;1551;51.046;7.010;2022-07-30T05:56:51;12.43;;;11.20;;
3081;SDS011;1551;51.046;7.010;2022-07-30T06:00:02;10.00;;;8.48;;
3081;SDS011;1551;51.046;7.010;2022-07-30T06:03:05;14.98;;;11.40;;
3081;SDS011;1551;51.046;7.010;2022-07-30T06:06:23;14.25;;;11.88;;
3081;SDS011;1551;51.046;7.010;2022-07-30T06:09:13;15.50;;;14.00;;
3081;SDS011;1551;51.046;7.010;2022-07-30T06:12:03;15.23;;;12.95;;
3081;SDS011;1551;51.046;7.010;2022-07-30T06:14:54;14.40;;;12.60;;
3081;SDS011;1551;51.046;7.010;2022-07-30T06:17:49;15.40;;;13.50;;
3081;SDS011;1551;51.046;7.010;2022-07-30T06:20:53;15.90;;;11.60;;
3081;SDS011;1551;51.046;7.010;2022-07-30T06:23:55;15.07;;;12.13;;
3081;SDS011;1551;51.046;7.010;2022-07-30T06:27:07;15.13;;;13.53;;
3081;SDS011;1551;51.046;7.010;2022-07-30T06:29:57;16.77;;;13.68;;
3081;SDS011;1551;51.046;7.010;2022-07-30T06:32:46;12.20;;;10.60;;
3081;SDS011;1551;51.046;7.010;2022-07-30T06:35:36;10.57;;;9.30;;
3081;SDS011;1551;51.046;7.010;2022-07-30T06:38:26;9.45;;;8.23;;
3081;SDS011;1551;51.046;7.010;2022-07-30T06:41:21;12.57;;;9.88;;
3081;SDS011;1551;51.046;7.010;2022-07-30T06:44:15;12.18;;;10.98;;
3081;SDS011;1551;51.046;7.010;2022-07-30T06:47:10;15.73;;;12.43;;
3081;SDS011;1551;51.046;7.010;2022-07-30T06:50:00;14.32;;;11.35;;
3081;SDS011;1551;51.046;7.010;2022-07-30T06:52:52;16.48;;;12.27;;
3081;SDS011;1551;51.046;7.010;2022-07-30T06:55:41;12.30;;;11.00;;
3081;SDS011;1551;51.046;7.010;2022-07-30T06:58:31;12.63;;;11.02;;
3081;SDS011;1551;51.046;7.010;2022-07-30T07:01:43;16.00;;;13.30;;
3081;SDS011;1551;51.046;7.010;2022-07-30T07:04:33;11.63;;;10.38;;
3081;SDS011;1551;51.046;7.010;2022-07-30T07:07:23;19.83;;;15.18;;
3081;SDS011;1551;51.046;7.010;2022-07-30T07:10:12;15.10;;;13.50;;
3081;SDS011;1551;51.046;7.010;2022-07-30T07:13:00;16.20;;;14.50;;
3081;SDS011;1551;51.046;7.010;2022-07-30T07:15:50;17.35;;;14.50;;
3081;SDS011;1551;51.046;7.010;2022-07-30T07:18:42;15.10;;;13.60;;
3081;SDS011;1551;51.046;7.010;2022-07-30T07:21:32;14.90;;;12.38;;
3081;SDS011;1551;51.046;7.010;2022-07-30T07:24:21;15.02;;;13.25;;
3081;SDS011;1551;51.046;7.010;2022-07-30T07:27:17;13.80;;;12.03;;
3081;SDS011;1551;51.046;7.010;2022-07-30T07:30:10;12.88;;;10.68;;
3081;SDS011;1551;51.046;7.010;2022-07-30T07:32:59;12.45;;;10.05;;
3081;SDS011;1551;51.046;7.010;2022-07-30T07:35:48;11.93;;;9.48;;
3081;SDS011;1551;51.046;7.010;2022-07-30T07:38:41;13.70;;;12.27;;
3081;SDS011;1551;51.046;7.010;2022-07-30T07:41:30;11.85;;;10.15;;
3081;SDS011;1551;51.046;7.010;2022-07-30T07:44:19;14.80;;;11.77;;
3081;SDS011;1551;51.046;7.010;2022-07-30T07:47:08;11.70;;;9.40;;
3081;SDS011;1551;51.046;7.010;2022-07-30T07:50:02;12.07;;;10.77;;
3081;SDS011;1551;51.046;7.010;2022-07-30T07:52:52;15.60;;;11.60;;
3081;SDS011;1551;51.046;7.010;2022-07-30T07:55:41;12.65;;;9.60;;
3081;SDS011;1551;51.046;7.010;2022-07-30T07:58:30;12.95;;;9.90;;
3081;SDS011;1551;51.046;7.010;2022-07-30T08:01:21;13.55;;;11.77;;
3081;SDS011;1551;51.046;7.010;2022-07-30T08:04:29;12.07;;;9.75;;
3081;SDS011;1551;51.046;7.010;2022-07-30T08:07:34;14.50;;;10.83;;
3081;SDS011;1551;51.046;7.010;2022-07-30T08:10:42;11.02;;;9.10;;
3081;SDS011;1551;51.046;7.010;2022-07-30T08:13:49;10.85;;;7.60;;
3081;SDS011;1551;51.046;7.010;2022-07-30T08:16:57;12.68;;;8.63;;
3081;SDS011;1551;51.046;7.010;2022-07-30T08:20:08;11.40;;;8.93;;
3081;SDS011;1551;51.046;7.010;2022-07-30T08:22:58;10.90;;;8.45;;
3081;SDS011;1551;51.046;7.010;2022-07-30T08:25:48;9.85;;;7.68;;
3081;SDS011;1551;51.046;7.010;2022-07-30T08:28:37;10.10;;;8.00;;
3081;SDS011;1551;51.046;7.010;2022-07-30T08:31:29;10.77;;;8.10;;
3081;SDS011;1551;51.046;7.010;2022-07-30T08:34:19;10.45;;;8.10;;
3081;SDS011;1551;51.046;7.010;2022-07-30T08:37:09;7.70;;;5.30;;
3081;SDS011;1551;51.046;7.010;2022-07-30T08:39:58;11.37;;;8.03;;
3081;SDS011;1551;51.046;7.010;2022-07-30T08:42:47;7.73;;;6.40;;
3081;SDS011;1551;51.046;7.010;2022-07-30T08:45:37;10.13;;;8.20;;
3081;SDS011;1551;51.046;7.010;2022-07-30T08:48:42;10.20;;;7.75;;
3081;SDS011;1551;51.046;7.010;2022-07-30T08:51:35;11.55;;;8.00;;
3081;SDS011;1551;51.046;7.010;2022-07-30T08:54:54;8.65;;;6.93;;
3081;SDS011;1551;51.046;7.010;2022-07-30T08:57:43;8.47;;;5.80;;
3081;SDS011;1551;51.046;7.010;2022-07-30T09:00:33;10.65;;;6.60;;
3081;SDS011;1551;51.046;7.010;2022-07-30T09:03:22;8.45;;;6.70;;
3081;SDS011;1551;51.046;7.010;2022-07-30T09:06:12;8.10;;;6.07;;
3081;SDS011;1551;51.046;7.010;2022-07-30T09:09:01;10.40;;;7.03;;
3081;SDS011;1551;51.046;7.010;2022-07-30T09:11:50;8.63;;;7.22;;
3081;SDS011;1551;51.046;7.010;2022-07-30T09:14:39;9.70;;;6.75;;
3081;SDS011;1551;51.046;7.010;2022-07-30T09:17:42;9.07;;;6.15;;
3081;SDS011;1551;51.046;7.010;2022-07-30T09:20:49;9.75;;;6.90;;
3081;SDS011;1551;51.046;7.010;2022-07-30T09:23:39;9.48;;;6.80;;
3081;SDS011;1551;51.046;7.010;2022-07-30T09:26:58;11.18;;;8.48;;
3081;SDS011;1551;51.046;7.010;2022-07-30T09:30:01;10.90;;;8.52;;
3081;SDS011;1551;51.046;7.010;2022-07-30T09:33:32;8.75;;;7.43;;
3081;SDS011;1551;51.046;7.010;2022-07-30T09:36:52;6.60;;;5.32;;
3081;SDS011;1551;51.046;7.010;2022-07-30T09:40:09;8.77;;;5.85;;
3081;SDS011;1551;51.046;7.010;2022-07-30T09:43:21;10.95;;;6.35;;
3081;SDS011;1551;51.046;7.010;2022-07-30T09:46:17;9.32;;;7.05;;
3081;SDS011;1551;51.046;7.010;2022-07-30T09:49:13;9.90;;;7.10;;
3081;SDS011;1551;51.046;7.010;2022-07-30T09:52:03;8.23;;;6.22;;
3081;SDS011;1551;51.046;7.010;2022-07-30T09:54:57;10.07;;;6.93;;
3081;SDS011;1551;51.046;7.010;2022-07-30T09:57:54;7.63;;;6.03;;
3081;SDS011;1551;51.046;7.010;2022-07-30T10:00:45;9.80;;;6.53;;
3081;SDS011;1551;51.046;7.010;2022-07-30T10:03:56;9.18;;;6.75;;
3081;SDS011;1551;51.046;7.010;2022-07-30T10:07:18;8.32;;;6.63;;
3081;SDS011;1551;51.046;7.010;2022-07-30T10:10:09;10.10;;;7.75;;
3081;SDS011;1551;51.046;7.010;2022-07-30T10:13:00;10.00;;;6.82;;
3081;SDS011;1551;51.046;7.010;2022-07-30T10:15:51;8.93;;;7.17;;
3081;SDS011;1551;51.046;7.010;2022-07-30T10:18:41;7.70;;;6.18;;
3081;SDS011;1551;51.046;7.010;2022-07-30T10:21:49;8.47;;;6.23;;
3081;SDS011;1551;51.046;7.010;2022-07-30T10:24:57;8.80;;;7.00;;
3081;SDS011;1551;51.046;7.010;2022-07-30T10:28:16;9.17;;;6.90;;
3081;SDS011;1551;51.046;7.010;2022-07-30T10:31:05;8.10;;;6.37;;
3081;SDS011;1551;51.046;7.010;2022-07-30T10:33:55;6.80;;;6.10;;
3081;SDS011;1551;51.046;7.010;2022-07-30T10:36:47;8.13;;;6.40;;
3081;SDS011;1551;51.046;7.010;2022-07-30T10:39:42;9.02;;;5.85;;
3081;SDS011;1551;51.046;7.010;2022-07-30T10:45:45;8.80;;;5.95;;
3081;SDS011;1551;51.046;7.010;2022-07-30T10:48:39;6.60;;;5.20;;
3081;SDS011;1551;51.046;7.010;2022-07-30T10:51:48;8.63;;;5.55;;
3081;SDS011;1551;51.046;7.010;2022-07-30T10:54:39;7.60;;;4.97;;
3081;SDS011;1551;51.046;7.010;2022-07-30T10:57:35;7.57;;;4.80;;
3081;SDS011;1551;51.046;7.010;2022-07-30T11:03:41;5.85;;;4.40;;
3081;SDS011;1551;51.046;7.010;2022-07-30T11:06:30;4.85;;;4.20;;
3081;SDS011;1551;51.046;7.010;2022-07-30T11:09:33;7.65;;;4.80;;
3081;SDS011;1551;51.046;7.010;2022-07-30T11:19:01;6.80;;;4.10;;
3081;SDS011;1551;51.046;7.010;2022-07-30T11:28:33;7.28;;;4.72;;
3081;SDS011;1551;51.046;7.010;2022-07-30T11:31:30;5.50;;;4.10;;
3081;SDS011;1551;51.046;7.010;2022-07-30T11:37:13;5.20;;;4.38;;
3081;SDS011;1551;51.046;7.010;2022-07-30T11:40:06;6.32;;;4.35;;
3081;SDS011;1551;51.046;7.010;2022-07-30T11:46:17;6.27;;;4.53;;
3081;SDS011;1551;51.046;7.010;2022-07-30T11:49:13;6.10;;;3.75;;
3081;SDS011;1551;51.046;7.010;2022-07-30T11:52:03;5.00;;;4.32;;
3081;SDS011;1551;51.046;7.010;2022-07-30T11:54:53;6.10;;;4.65;;
3081;SDS011;1551;51.046;7.010;2022-07-30T11:57:43;5.68;;;4.43;;
3081;SDS011;1551;51.046;7.010;2022-07-30T12:00:33;6.97;;;4.47;;
3081;SDS011;1551;51.046;7.010;2022-07-30T12:03:24;4.30;;;3.60;;
3081;SDS011;1551;51.046;7.010;2022-07-30T12:06:14;3.90;;;3.20;;
3081;SDS011;1551;51.046;7.010;2022-07-30T12:09:11;7.10;;;4.10;;
3081;SDS011;1551;51.046;7.010;2022-07-30T12:12:01;6.18;;;4.03;;
3081;SDS011;1551;51.046;7.010;2022-07-30T12:14:50;4.63;;;3.50;;
3081;SDS011;1551;51.046;7.010;2022-07-30T12:17:43;4.90;;;3.15;;
3081;SDS011;1551;51.046;7.010;2022-07-30T12:20:33;3.45;;;3.10;;
3081;SDS011;1551;51.046;7.010;2022-07-30T12:23:23;4.65;;;3.20;;
3081;SDS011;1551;51.046;7.010;2022-07-30T12:26:20;4.63;;;3.10;;
3081;SDS011;1551;51.046;7.010;2022-07-30T12:29:11;4.32;;;3.30;;
3081;SDS011;1551;51.046;7.010;2022-07-30T12:32:01;3.30;;;2.95;;
3081;SDS011;1551;51.046;7.010;2022-07-30T12:34:53;4.40;;;3.00;;
3081;SDS011;1551;51.046;7.010;2022-07-30T12:38:00;4.13;;;2.53;;
3081;SDS011;1551;51.046;7.010;2022-07-30T12:43:49;3.90;;;2.60;;
3081;SDS011;1551;51.046;7.010;2022-07-30T12:46:43;4.63;;;2.55;;
3081;SDS011;1551;51.046;7.010;2022-07-30T12:49:32;3.10;;;2.50;;
3081;SDS011;1551;51.046;7.010;2022-07-30T12:52:25;3.40;;;2.40;;
3081;SDS011;1551;51.046;7.010;2022-07-30T12:55:29;4.05;;;2.35;;
3081;SDS011;1551;51.046;7.010;2022-07-30T12:58:22;2.58;;;2.30;;
3081;SDS011;1551;51.046;7.010;2022-07-30T13:01:11;5.20;;;2.45;;
3081;SDS011;1551;51.046;7.010;2022-07-30T13:04:04;3.63;;;2.13;;
3081;SDS011;1551;51.046;7.010;2022-07-30T13:07:06;4.28;;;2.50;;
3081;SDS011;1551;51.046;7.010;2022-07-30T13:10:09;4.50;;;2.40;;
3081;SDS011;1551;51.046;7.010;2022-07-30T13:13:00;3.03;;;2.13;;
3081;SDS011;1551;51.046;7.010;2022-07-30T13:16:00;3.50;;;2.60;;
3081;SDS011;1551;51.046;7.010;2022-07-30T13:18:50;4.00;;;2.90;;
3081;SDS011;1551;51.046;7.010;2022-07-30T13:21:39;2.80;;;2.60;;
3081;SDS011;1551;51.046;7.010;2022-07-30T13:24:30;4.85;;;2.53;;
3081;SDS011;1551;51.046;7.010;2022-07-30T13:27:21;3.40;;;2.30;;
3081;SDS011;1551;51.046;7.010;2022-07-30T13:30:10;3.42;;;2.70;;
3081;SDS011;1551;51.046;7.010;2022-07-30T13:33:00;4.77;;;3.30;;
3081;SDS011;1551;51.046;7.010;2022-07-30T13:35:49;5.00;;;2.70;;
3081;SDS011;1551;51.046;7.010;2022-07-30T13:38:37;3.50;;;2.42;;
3081;SDS011;1551;51.046;7.010;2022-07-30T13:41:27;4.20;;;3.30;;
3081;SDS011;1551;51.046;7.010;2022-07-30T13:44:16;3.80;;;2.30;;
3081;SDS011;1551;51.046;7.010;2022-07-30T13:47:05;3.80;;;2.53;;
3081;SDS011;1551;51.046;7.010;2022-07-30T13:49:55;3.27;;;2.17;;
3081;SDS011;1551;51.046;7.010;2022-07-30T13:52:44;3.70;;;2.03;;
3081;SDS011;1551;51.046;7.010;2022-07-30T13:55:33;2.47;;;2.05;;
3081;SDS011;1551;51.046;7.010;2022-07-30T13:58:23;2.70;;;1.60;;
3081;SDS011;1551;51.046;7.010;2022-07-30T14:01:12;2.50;;;1.90;;
3081;SDS011;1551;51.046;7.010;2022-07-30T14:04:02;2.58;;;1.90;;
3081;SDS011;1551;51.046;7.010;2022-07-30T14:06:51;1.95;;;1.60;;
3081;SDS011;1551;51.046;7.010;2022-07-30T14:09:40;3.22;;;1.70;;
3081;SDS011;1551;51.046;7.010;2022-07-30T14:12:29;3.53;;;1.70;;
3081;SDS011;1551;51.046;7.010;2022-07-30T14:15:18;2.45;;;1.60;;
3081;SDS011;1551;51.046;7.010;2022-07-30T14:18:07;4.40;;;1.40;;
3081;SDS011;1551;51.046;7.010;2022-07-30T14:20:56;2.15;;;1.60;;
3081;SDS011;1551;51.046;7.010;2022-07-30T14:23:45;3.50;;;1.90;;
3081;SDS011;1551;51.046;7.010;2022-07-30T14:26:34;3.47;;;1.90;;
3081;SDS011;1551;51.046;7.010;2022-07-30T14:29:23;1.80;;;1.40;;
3081;SDS011;1551;51.046;7.010;2022-07-30T14:32:12;2.60;;;1.38;;
3081;SDS011;1551;51.046;7.010;2022-07-30T14:35:02;2.40;;;1.80;;
3081;SDS011;1551;51.046;7.010;2022-07-30T14:37:52;2.40;;;1.80;;
3081;SDS011;1551;51.046;7.010;2022-07-30T14:40:40;2.33;;;1.67;;
3081;SDS011;1551;51.046;7.010;2022-07-30T14:43:29;3.35;;;2.20;;
3081;SDS011;1551;51.046;7.010;2022-07-30T14:46:18;3.60;;;2.00;;
3081;SDS011;1551;51.046;7.010;2022-07-30T14:49:07;3.97;;;2.03;;
3081;SDS011;1551;51.046;7.010;2022-07-30T14:51:57;4.00;;;2.28;;
3081;SDS011;1551;51.046;7.010;2022-07-30T14:54:46;2.78;;;2.00;;
3081;SDS011;1551;51.046;7.010;2022-07-30T14:57:35;2.27;;;1.57;;
3081;SDS011;1551;51.046;7.010;2022-07-30T15:00:24;2.90;;;1.50;;
3081;SDS011;1551;51.046;7.010;2022-07-30T15:03:13;3.10;;;1.50;;
3081;SDS011;1551;51.046;7.010;2022-07-30T15:06:03;2.30;;;1.60;;
3081;SDS011;1551;51.046;7.010;2022-07-30T15:08:52;2.72;;;1.45;;
3081;SDS011;1551;51.046;7.010;2022-07-30T15:11:41;3.00;;;1.50;;
3081;SDS011;1551;51.046;7.010;2022-07-30T15:14:30;2.60;;;1.50;;
3081;SDS011;1551;51.046;7.010;2022-07-30T15:17:19;3.28;;;1.70;;
3081;SDS011;1551;51.046;7.010;2022-07-30T15:20:08;2.93;;;1.60;;
3081;SDS011;1551;51.046;7.010;2022-07-30T15:22:58;2.20;;;1.30;;
3081;SDS011;1551;51.046;7.010;2022-07-30T15:25:47;2.95;;;1.65;;
3081;SDS011;1551;51.046;7.010;2022-07-30T15:28:37;3.28;;;1.60;;
3081;SDS011;1551;51.046;7.010;2022-07-30T15:31:26;3.40;;;1.50;;
3081;SDS011;1551;51.046;7.010;2022-07-30T15:34:16;3.50;;;1.83;;
3081;SDS011;1551;51.046;7.010;2022-07-30T15:37:05;3.65;;;2.13;;
3081;SDS011;1551;51.046;7.010;2022-07-30T15:39:54;2.25;;;1.55;;
3081;SDS011;1551;51.046;7.010;2022-07-30T15:42:43;3.40;;;1.50;;
3081;SDS011;1551;51.046;7.010;2022-07-30T15:45:32;2.05;;;1.52;;
3081;SDS011;1551;51.046;7.010;2022-07-30T15:48:24;2.30;;;1.60;;
3081;SDS011;1551;51.046;7.010;2022-07-30T15:51:15;3.00;;;1.70;;
3081;SDS011;1551;51.046;7.010;2022-07-30T15:54:04;2.25;;;1.33;;
3081;SDS011;1551;51.046;7.010;2022-07-30T15:56:54;3.20;;;1.40;;
3081;SDS011;1551;51.046;7.010;2022-07-30T15:59:46;2.00;;;1.30;;
3081;SDS011;1551;51.046;7.010;2022-07-30T16:02:35;3.60;;;1.50;;
3081;SDS011;1551;51.046;7.010;2022-07-30T16:05:25;2.88;;;1.27;;
3081;SDS011;1551;51.046;7.010;2022-07-30T16:08:14;3.90;;;1.50;;
3081;SDS011;1551;51.046;7.010;2022-07-30T16:11:03;2.97;;;1.40;;
3081;SDS011;1551;51.046;7.010;2022-07-30T16:13:52;2.70;;;1.20;;
3081;SDS011;1551;51.046;7.010;2022-07-30T16:16:41;3.10;;;1.60;;
3081;SDS011;1551;51.046;7.010;2022-07-30T16:19:30;3.20;;;1.60;;
3081;SDS011;1551;51.046;7.010;2022-07-30T16:22:19;3.00;;;1.93;;
3081;SDS011;1551;51.046;7.010;2022-07-30T16:25:08;2.80;;;1.75;;
3081;SDS011;1551;51.046;7.010;2022-07-30T16:27:57;2.90;;;1.50;;
3081;SDS011;1551;51.046;7.010;2022-07-30T16:30:46;2.50;;;1.40;;
3081;SDS011;1551;51.046;7.010;2022-07-30T16:33:36;2.10;;;1.50;;
3081;SDS011;1551;51.046;7.010;2022-07-30T16:36:25;2.00;;;1.50;;
3081;SDS011;1551;51.046;7.010;2022-07-30T16:39:14;2.40;;;1.40;;
3081;SDS011;1551;51.046;7.010;2022-07-30T16:42:03;2.58;;;1.85;;
3081;SDS011;1551;51.046;7.010;2022-07-30T16:44:52;3.17;;;1.40;;
3081;SDS011;1551;51.046;7.010;2022-07-30T16:47:41;2.35;;;1.42;;
3081;SDS011;1551;51.046;7.010;2022-07-30T16:50:29;2.50;;;1.70;;
3081;SDS011;1551;51.046;7.010;2022-07-30T16:53:19;2.30;;;1.40;;
3081;SDS011;1551;51.046;7.010;2022-07-30T16:56:07;2.70;;;1.60;;
3081;SDS011;1551;51.046;7.010;2022-07-30T16:58:56;3.38;;;1.50;;
3081;SDS011;1551;51.046;7.010;2022-07-30T17:01:45;2.97;;;1.10;;
3081;SDS011;1551;51.046;7.010;2022-07-30T17:04:35;3.33;;;1.30;;
3081;SDS011;1551;51.046;7.010;2022-07-30T17:07:24;3.50;;;1.40;;
3081;SDS011;1551;51.046;7.010;2022-07-30T17:10:13;3.25;;;1.50;;
3081;SDS011;1551;51.046;7.010;2022-07-30T17:13:02;3.10;;;1.50;;
3081;SDS011;1551;51.046;7.010;2022-07-30T17:15:51;2.30;;;1.80;;
3081;SDS011;1551;51.046;7.010;2022-07-30T17:18:42;3.75;;;2.28;;
3081;SDS011;1551;51.046;7.010;2022-07-30T17:21:31;2.10;;;1.40;;
3081;SDS011;1551;51.046;7.010;2022-07-30T17:24:20;2.53;;;1.67;;
3081;SDS011;1551;51.046;7.010;2022-07-30T17:27:09;2.90;;;1.80;;
3081;SDS011;1551;51.046;7.010;2022-07-30T17:29:58;2.17;;;1.40;;
3081;SDS011;1551;51.046;7.010;2022-07-30T17:32:48;3.10;;;1.70;;
3081;SDS011;1551;51.046;7.010;2022-07-30T17:35:38;2.20;;;1.50;;
3081;SDS011;1551;51.046;7.010;2022-07-30T17:38:27;3.00;;;1.50;;
3081;SDS011;1551;51.046;7.010;2022-07-30T17:41:16;2.08;;;1.45;;
3081;SDS011;1551;51.046;7.010;2022-07-30T17:44:05;2.40;;;1.80;;
3081;SDS011;1551;51.046;7.010;2022-07-30T17:46:54;3.90;;;2.10;;
3081;SDS011;1551;51.046;7.010;2022-07-30T17:49:43;4.72;;;2.00;;
3081;SDS011;1551;51.046;7.010;2022-07-30T17:52:32;3.50;;;1.70;;
3081;SDS011;1551;51.046;7.010;2022-07-30T17:55:21;2.80;;;1.50;;
3081;SDS011;1551;51.046;7.010;2022-07-30T17:58:11;4.82;;;1.40;;
3081;SDS011;1551;51.046;7.010;2022-07-30T18:01:00;2.20;;;1.50;;
3081;SDS011;1551;51.046;7.010;2022-07-30T18:03:51;2.63;;;1.52;;
3081;SDS011;1551;51.046;7.010;2022-07-30T18:06:40;3.55;;;1.48;;
3081;SDS011;1551;51.046;7.010;2022-07-30T18:09:29;3.60;;;1.88;;
3081;SDS011;1551;51.046;7.010;2022-07-30T18:12:19;2.95;;;1.80;;
3081;SDS011;1551;51.046;7.010;2022-07-30T18:15:08;2.58;;;1.60;;
3081;SDS011;1551;51.046;7.010;2022-07-30T18:17:58;2.55;;;1.60;;
3081;SDS011;1551;51.046;7.010;2022-07-30T18:20:47;3.60;;;1.80;;